Time;durP1;ratioP1;P1;durP2;ratioP2;P2;SDS_P1;SDS_P2;PMS_P1;PMS_P2;Temp;Humidity;BMP_temperature;BMP_pressure;BME280_temperature;BME280_humidity;BME280_pressure;Samples;Min_cycle;Max_cycle;Signal;HPM_P1;HPM_P2
2023/05/08 00:00:29;;;;;;;;;;;18.40;99.90;;;18.67;68.44;98924.53;4906482;28;123961;-86
2023/05/08 00:02:59;;;;;;;;;;;18.40;99.90;;;18.66;68.06;98922.94;4907217;28;119692;-85
2023/05/08 00:05:25;;;;;;;;;;;18.40;99.90;;;18.64;68.45;98922.47;4907643;28;119036;-86
2023/05/08 00:07:52;;;;;;;;;;;18.30;99.90;;;18.59;68.56;98929.19;4907048;28;124345;-87
2023/05/08 00:10:24;;;;;;;;;;;18.30;99.90;;;18.57;68.54;98930.72;4906753;28;123836;-86
2023/05/08 00:12:50;;;;;;;;;;;18.30;99.90;;;18.55;68.66;98929.09;4908474;28;119192;-86
2023/05/08 00:15:17;;;;;;;;;;;18.30;99.90;;;18.55;68.65;98931.88;4906303;28;118803;-88
2023/05/08 00:17:49;;;;;;;;;;;18.30;99.90;;;18.55;68.58;98931.88;4906696;28;123343;-87
2023/05/08 00:20:15;;;;;;;;;;;18.30;99.90;;;18.52;68.63;98934.59;4908271;28;124392;-88
2023/05/08 00:22:42;;;;;;;;;;;18.30;99.90;;;18.50;68.43;98926.56;4906134;28;120428;-87
2023/05/08 00:25:11;;;;;;;;;;;18.20;99.90;;;18.49;68.57;98930.53;4906555;28;119648;-87
2023/05/08 00:27:37;;;;;;;;;;;18.20;99.90;;;18.48;68.65;98934.53;4906547;28;124812;-87
2023/05/08 00:30:05;;;;;;;;;;;18.20;99.90;;;18.51;68.85;98933.78;4895384;28;123292;-88
2023/05/08 00:32:36;;;;;;;;;;;18.20;99.90;;;18.51;68.55;98935.75;4906937;28;119085;-87
2023/05/08 00:35:02;;;;;;;;;;;17.70;99.90;;;18.49;68.59;98936.13;4911316;28;119087;-87
2023/05/08 00:37:28;;;;;;;;;;;18.20;99.90;;;18.48;68.51;98928.94;4895356;28;123790;-88
2023/05/08 00:39:54;;;;;;;;;;;18.20;99.90;;;18.46;68.54;98928.47;4909772;28;123968;-87
2023/05/08 00:42:24;;;;;;;;;;;18.20;99.90;;;18.48;68.46;98934.53;4909966;28;119464;-87
2023/05/08 00:44:50;;;;;;;;;;;18.20;99.90;;;18.48;68.50;98937.31;4910073;28;118665;-88
2023/05/08 00:47:16;;;;;;;;;;;18.20;99.90;;;18.48;68.44;98933.69;4909284;28;124170;-87
2023/05/08 00:49:43;;;;;;;;;;;18.20;99.90;;;18.46;68.29;98933.25;4908177;28;123789;-87
2023/05/08 00:52:12;;;;;;;;;;;18.20;99.90;;;18.46;68.35;98939.66;4909661;28;119421;-87
2023/05/08 00:54:41;;;;;;;;;;;18.20;99.90;;;18.46;68.35;98936.88;4910738;28;118690;-87
2023/05/08 00:57:13;;;;;;;;;;;18.20;99.90;;;18.48;68.17;98939.28;4891854;28;123726;-87
2023/05/08 00:59:40;;;;;;;;;;;18.20;99.90;;;18.47;68.09;98941.28;4898047;28;124707;-86
2023/05/08 01:02:12;;;;;;;;;;;18.10;99.90;;;18.48;68.08;98940.13;4909318;28;119338;-87
2023/05/08 01:04:39;;;;;;;;;;;18.20;99.90;;;18.48;67.95;98945.72;4908171;28;117801;-87
2023/05/08 01:07:06;;;;;;;;;;;18.20;99.90;;;18.47;67.82;98944.06;4907972;28;124850;-87
2023/05/08 01:09:35;;;;;;;;;;;18.20;99.90;;;18.49;67.74;98952.13;4907637;28;123811;-87
2023/05/08 01:12:26;;;;;;;;;;;18.20;99.90;;;18.47;67.61;98946.88;4907923;28;120350;-86
2023/05/08 01:15:13;;;;;;;;;;;18.20;99.90;;;18.46;67.62;98947.25;4923625;28;119694;-87
2023/05/08 01:17:55;;;;;;;;;;;18.20;99.90;;;18.44;67.53;98944.00;4907734;28;124365;-87
2023/05/08 01:21:02;;;;;;;;;;;18.10;99.90;;;18.42;67.54;98952.72;4909302;28;124473;-87
2023/05/08 01:23:46;;;;;;;;;;;18.10;99.90;;;18.42;67.38;98949.94;4893357;28;119580;-86
2023/05/08 01:26:47;;;;;;;;;;;18.10;99.90;;;18.41;67.51;98945.53;4909486;28;119041;-88
2023/05/08 01:29:40;;;;;;;;;;;18.10;99.90;;;18.40;67.27;98951.47;4903750;28;124269;-88
2023/05/08 01:32:34;;;;;;;;;;;18.10;99.90;;;18.37;67.36;98955.78;4902930;28;124896;-86
2023/05/08 01:35:30;;;;;;;;;;;18.10;99.90;;;18.36;67.22;98950.59;4910368;28;119048;-88
2023/05/08 01:38:18;;;;;;;;;;;18.10;99.90;;;18.36;67.57;98954.19;4911808;28;118631;-87
2023/05/08 01:40:53;;;;;;;;;;;18.00;99.90;;;18.35;67.49;98957.34;4906147;28;124379;-87
2023/05/08 01:43:39;;;;;;;;;;;18.10;99.90;;;18.33;67.52;98954.91;4908256;28;124125;-87
2023/05/08 01:46:15;;;;;;;;;;;18.10;99.90;;;18.34;67.60;98959.31;4909418;28;119685;-86
2023/05/08 01:49:06;;;;;;;;;;;18.00;99.90;;;18.33;67.40;98960.50;4908476;28;118657;-88
2023/05/08 01:51:39;;;;;;;;;;;18.10;99.90;;;18.33;67.68;98960.50;4908541;28;124792;-87
2023/05/08 01:54:13;;;;;;;;;;;18.00;99.90;;;18.32;67.45;98964.47;4909308;28;123956;-86
2023/05/08 01:56:42;;;;;;;;;;;18.00;99.90;;;18.29;67.35;98959.59;4908828;28;120114;-87
2023/05/08 01:59:14;;;;;;;;;;;18.00;99.90;;;18.28;67.67;98963.56;4908298;28;118895;-87
2023/05/08 02:01:53;;;;;;;;;;;18.00;99.90;;;18.28;67.65;98961.56;4910065;28;122441;-86
2023/05/08 02:04:25;;;;;;;;;;;18.00;99.90;;;18.29;67.63;98967.97;4909293;28;123904;-86
2023/05/08 02:06:53;;;;;;;;;;;18.00;99.90;;;18.29;67.60;98965.19;4907174;28;120859;-87
2023/05/08 02:09:23;;;;;;;;;;;18.70;99.90;;;18.30;67.68;98967.63;4906473;28;119683;-87
2023/05/08 02:11:51;;;;;;;;;;;18.00;99.90;;;18.29;67.87;98971.59;4907814;28;124376;-87
2023/05/08 02:14:18;;;;;;;;;;;18.00;99.90;;;18.30;67.97;98972.41;4908751;28;124780;-86
2023/05/08 02:16:50;;;;;;;;;;;18.00;99.90;;;18.30;67.68;98973.22;4907063;28;119391;-86
2023/05/08 02:19:17;;;;;;;;;;;18.00;99.90;;;18.31;67.71;98962.84;4894702;28;118166;-87
2023/05/08 02:21:49;;;;;;;;;;;18.00;99.90;;;18.33;67.69;98963.31;4906817;28;124577;-86
2023/05/08 02:24:16;;;;;;;;;;;18.00;99.90;;;18.34;67.77;98959.31;4910237;28;123489;-88
2023/05/08 02:26:43;;;;;;;;;;;18.00;99.90;;;18.33;67.72;98966.91;4907771;28;119348;-87
2023/05/08 02:29:13;;;;;;;;;;;18.00;99.90;;;18.34;67.79;98967.72;4907546;28;118826;-88
2023/05/08 02:31:40;;;;;;;;;;;18.00;99.90;;;18.35;67.74;98979.72;4918031;28;124609;-87
2023/05/08 02:34:12;;;;;;;;;;;18.70;99.90;;;18.35;67.65;98974.13;4911077;28;98003;-87
2023/05/08 02:36:38;;;;;;;;;;;18.00;99.90;;;18.34;67.77;98967.72;4907984;28;119713;-87
2023/05/08 02:39:12;;;;;;;;;;;18.00;99.90;;;18.36;67.71;98984.97;4908358;28;119027;-88
2023/05/08 02:41:40;;;;;;;;;;;18.00;99.90;;;18.36;67.73;98970.16;4905796;28;124332;-87
2023/05/08 02:44:07;;;;;;;;;;;18.00;99.90;;;18.35;67.85;98980.53;4908485;28;124111;-87
2023/05/08 02:46:55;;;;;;;;;;;18.00;99.90;;;18.36;67.74;98976.56;4906931;28;119503;-86
2023/05/08 02:49:37;;;;;;;;;;;18.00;99.90;;;18.36;68.01;98984.97;4916173;28;118853;-87
2023/05/08 02:52:17;;;;;;;;;;;18.00;99.90;;;18.36;67.95;98975.75;4906305;28;124531;-87
2023/05/08 02:54:52;;;;;;;;;;;18.00;99.90;;;18.38;67.84;98979.00;4910613;28;122884;-87
2023/05/08 02:57:38;;;;;;;;;;;18.00;99.90;;;18.35;67.89;98980.53;4909533;28;119756;-87
2023/05/08 03:00:12;;;;;;;;;;;18.00;99.90;;;18.33;67.96;98982.88;4908458;28;118897;-87
2023/05/08 03:02:48;;;;;;;;;;;18.00;99.90;;;18.32;68.10;98975.66;4907071;28;124462;-87
2023/05/08 03:05:18;;;;;;;;;;;18.00;99.90;;;18.30;68.23;98969.63;4910809;28;123264;-87
2023/05/08 03:07:49;;;;;;;;;;;18.00;99.90;;;18.30;68.16;98969.63;4907955;28;118906;-87
2023/05/08 03:10:18;;;;;;;;;;;18.00;99.90;;;18.33;68.06;98966.09;4893597;28;118974;-86
2023/05/08 03:12:53;;;;;;;;;;;18.00;99.90;;;18.35;68.17;98971.31;4905744;28;124826;-87
2023/05/08 03:15:27;;;;;;;;;;;18.00;99.90;;;18.35;68.10;98963.75;4894226;28;123791;-86
2023/05/08 03:18:05;;;;;;;;;;;18.00;99.90;;;18.35;68.14;98968.53;4908144;28;119534;-87
2023/05/08 03:20:43;;;;;;;;;;;18.00;99.90;;;18.31;68.12;98962.84;4906599;28;119233;-87
2023/05/08 03:23:17;;;;;;;;;;;18.00;99.90;;;18.30;68.23;98967.63;4895034;28;124039;-88
2023/05/08 03:25:43;;;;;;;;;;;18.00;99.90;;;18.31;68.02;98965.66;4922338;28;123642;-87
2023/05/08 03:28:24;;;;;;;;;;;18.00;99.90;;;18.28;68.00;98974.75;4887977;28;118274;-88
2023/05/08 03:30:51;;;;;;;;;;;18.00;99.90;;;18.28;68.26;98971.97;4904606;28;118296;-87
2023/05/08 03:33:20;;;;;;;;;;;18.00;99.90;;;18.27;67.87;98970.34;4909787;28;123973;-88
2023/05/08 03:35:49;;;;;;;;;;;18.00;99.90;;;18.24;68.21;98969.09;4910238;28;124152;-87
2023/05/08 03:38:17;;;;;;;;;;;18.00;99.90;;;18.22;68.12;98971.41;4906287;28;118559;-87
2023/05/08 03:40:44;;;;;;;;;;;17.90;99.90;;;18.20;68.08;98967.34;4908012;28;118886;-86
2023/05/08 03:43:10;;;;;;;;;;;17.90;99.90;;;18.17;68.18;98976.47;4908118;28;124113;-86
2023/05/08 03:45:40;;;;;;;;;;;17.90;99.90;;;18.12;68.26;98971.94;4909123;28;123300;-86
2023/05/08 03:48:08;;;;;;;;;;;17.90;99.90;;;18.06;68.37;98979.78;4907628;28;120234;-87
2023/05/08 03:50:43;;;;;;;;;;;17.80;99.90;;;18.02;68.55;98978.06;4907507;28;119703;-87
2023/05/08 03:53:09;;;;;;;;;;;17.80;99.90;;;18.01;68.43;98982.84;4909680;28;124237;-86
2023/05/08 03:55:36;;;;;;;;;;;17.80;99.90;;;17.99;68.57;98987.16;4907161;28;123902;-87
2023/05/08 03:58:58;;;;;;;;;;;17.70;99.90;;;17.94;68.49;98981.81;4907241;28;120297;-87
2023/05/08 04:01:31;;;;;;;;;;;17.70;99.90;;;17.93;68.69;98981.00;4904828;28;118750;-86
2023/05/08 04:04:06;;;;;;;;;;;17.50;99.90;;;17.95;68.44;98978.69;4903209;28;124820;-88
2023/05/08 04:06:54;;;;;;;;;;;17.70;99.90;;;17.95;68.64;98983.47;4908184;28;124051;-87
2023/05/08 04:09:43;;;;;;;;;;;17.70;99.90;;;17.97;68.50;98981.91;4914329;28;119094;-87
2023/05/08 04:12:19;;;;;;;;;;;17.70;99.90;;;18.00;68.46;98988.78;4897054;28;119075;-86
2023/05/08 04:15:05;;;;;;;;;;;17.70;99.90;;;18.02;68.48;98992.84;4924554;28;124166;-86
2023/05/08 04:17:35;;;;;;;;;;;17.70;99.90;;;18.02;68.37;98983.63;4909147;28;123996;-86
2023/05/08 04:20:08;;;;;;;;;;;17.70;99.90;;;18.04;68.35;98992.50;4902159;28;119882;-87
2023/05/08 04:22:43;;;;;;;;;;;17.70;99.90;;;18.04;68.21;98998.88;4899845;28;118767;-87
2023/05/08 04:25:19;;;;;;;;;;;17.70;99.90;;;18.05;68.34;98992.16;4902428;28;124183;-87
2023/05/08 04:27:47;;;;;;;;;;;17.70;99.90;;;18.05;68.34;98997.75;4902963;28;123967;-86
2023/05/08 04:30:17;;;;;;;;;;;15.90;99.90;;;18.06;68.20;99002.16;4905069;28;119362;-86
2023/05/08 04:32:43;;;;;;;;;;;17.70;99.90;;;18.05;68.41;99000.53;4903021;28;119107;-86
2023/05/08 04:35:12;;;;;;;;;;;16.40;99.90;;;18.05;68.34;99005.28;4902079;28;124122;-87
2023/05/08 04:37:44;;;;;;;;;;;17.80;99.90;;;18.06;68.12;99004.94;4895050;28;123373;-88
2023/05/08 04:40:10;;;;;;;;;;;17.80;99.90;;;18.08;68.20;99012.97;4901627;28;120516;-86
2023/05/08 04:42:38;;;;;;;;;;;17.80;99.90;;;18.09;68.16;99007.03;4905054;28;119847;-87
2023/05/08 04:45:08;;;;;;;;;;;17.80;99.90;;;18.08;68.02;99013.78;4894456;28;124984;-87
2023/05/08 04:47:34;;;;;;;;;;;17.70;99.90;;;18.09;68.12;99012.63;4905935;28;124542;-87
2023/05/08 04:50:07;;;;;;;;;;;15.90;99.90;;;18.08;68.23;99011.00;4896508;28;120631;-86
2023/05/08 04:52:33;;;;;;;;;;;17.80;99.90;;;18.08;67.94;99016.59;4901447;28;118721;-87
2023/05/08 04:54:59;;;;;;;;;;;17.80;99.90;;;18.08;68.02;99016.59;4901622;28;124649;-87
2023/05/08 04:57:29;;;;;;;;;;;17.80;99.90;;;18.10;68.01;99019.00;4908455;28;124231;-87
2023/05/08 04:59:55;;;;;;;;;;;17.80;99.90;;;18.12;67.96;99018.66;4902356;28;119330;-87
2023/05/08 05:02:24;;;;;;;;;;;17.80;99.90;;;18.12;68.01;99018.66;4905694;28;118872;-85
2023/05/08 05:04:53;;;;;;;;;;;17.80;99.90;;;18.12;67.89;99022.28;4906179;28;124402;-86
2023/05/08 05:07:19;;;;;;;;;;;17.80;99.90;;;18.12;67.93;99021.47;4891388;28;124011;-87
2023/05/08 05:09:46;;;;;;;;;;;18.00;99.90;;;18.08;67.81;99027.78;4893375;28;119467;-86
2023/05/08 05:12:12;;;;;;;;;;;17.70;99.90;;;18.04;67.94;99031.63;4903516;28;118603;-87
2023/05/08 05:14:41;;;;;;;;;;;17.70;99.90;;;18.01;67.96;99033.16;4908833;28;123580;-87
2023/05/08 05:17:07;;;;;;;;;;;17.70;99.90;;;18.00;67.99;99036.31;4903321;28;123763;-86
2023/05/08 05:19:34;;;;;;;;;;;17.70;99.90;;;18.03;67.96;99035.63;4907515;28;118756;-87
2023/05/08 05:22:00;;;;;;;;;;;17.70;99.90;;;18.05;67.85;99036.88;4911246;28;118101;-88
2023/05/08 05:24:29;;;;;;;;;;;17.70;99.90;;;18.06;68.00;99030.13;4904735;28;124846;-81
2023/05/08 05:26:56;;;;;;;;;;;17.70;99.90;;;18.09;67.93;99035.00;4910535;28;124120;-87
2023/05/08 05:29:22;;;;;;;;;;;17.80;99.90;;;18.13;67.84;99034.28;4908625;28;120746;-88
2023/05/08 05:31:54;;;;;;;;;;;17.80;99.90;;;18.16;67.74;99037.19;4902700;28;119700;-86
2023/05/08 05:34:20;;;;;;;;;;;17.80;99.90;;;18.18;67.61;99042.41;4907701;28;123498;-87
2023/05/08 05:36:46;;;;;;;;;;;17.80;99.90;;;18.20;67.73;99040.88;4909294;28;123358;-88
2023/05/08 05:39:13;;;;;;;;;;;17.80;99.90;;;18.22;67.55;99044.13;4908386;28;120595;-87
2023/05/08 05:41:43;;;;;;;;;;;17.90;99.90;;;18.24;67.71;99040.97;4907416;28;118728;-87
2023/05/08 05:44:10;;;;;;;;;;;17.90;99.90;;;18.26;67.51;99044.22;4910451;28;124360;-87
2023/05/08 05:46:36;;;;;;;;;;;17.90;99.90;;;18.29;67.56;99049.09;4900585;28;124006;-86
2023/05/08 05:49:02;;;;;;;;;;;17.90;99.90;;;18.32;67.37;99048.38;4904431;28;119521;-87
2023/05/08 05:51:34;;;;;;;;;;;17.90;99.90;;;18.33;67.33;99045.22;4907907;28;118376;-87
2023/05/08 05:54:00;;;;;;;;;;;17.90;99.90;;;18.35;67.61;99044.06;4899665;28;124123;-87
2023/05/08 05:56:27;;;;;;;;;;;17.90;99.90;;;18.33;67.43;99045.22;4894646;28;124633;-88
2023/05/08 05:58:58;;;;;;;;;;;18.00;99.90;;;18.32;67.40;99046.41;4897675;28;119692;-86
2023/05/08 06:01:24;;;;;;;;;;;18.00;99.90;;;18.30;67.48;99045.16;4900987;28;118952;-87
2023/05/08 06:03:51;;;;;;;;;;;18.00;99.90;;;18.30;67.55;99050.75;4900574;28;124221;-86
2023/05/08 06:06:23;;;;;;;;;;;18.00;99.90;;;18.32;67.49;99053.97;4892740;28;124307;-86
2023/05/08 06:08:50;;;;;;;;;;;18.00;99.90;;;18.31;67.48;99057.94;4921578;28;118674;-89
2023/05/08 06:11:16;;;;;;;;;;;18.00;99.90;;;18.31;67.58;99053.16;4911910;28;118742;-90
2023/05/08 06:13:45;;;;;;;;;;;18.00;99.90;;;18.32;67.53;99051.19;4923608;28;124129;-88
2023/05/08 06:16:12;;;;;;;;;;;18.00;99.90;;;18.33;67.48;99055.63;4919848;28;123863;-90
2023/05/08 06:18:38;;;;;;;;;;;18.00;99.90;;;18.33;67.73;99061.22;4918130;28;120767;-89
2023/05/08 06:21:04;;;;;;;;;;;18.00;99.90;;;18.31;67.62;99053.16;4907193;28;119881;-89
2023/05/08 06:23:33;;;;;;;;;;;18.00;99.90;;;18.31;67.52;99053.16;4924614;28;124291;-89
2023/05/08 06:26:02;;;;;;;;;;;18.00;99.90;;;18.33;67.51;99056.41;4920419;28;124278;-88
2023/05/08 06:28:28;;;;;;;;;;;18.00;99.90;;;18.33;67.51;99052.81;4900521;28;118803;-89
2023/05/08 06:30:57;;;;;;;;;;;18.00;99.90;;;18.34;67.41;99057.22;4909250;28;117798;-90
2023/05/08 06:33:23;;;;;;;;;;;18.00;99.90;;;18.35;67.50;99056.09;4923355;28;124194;-90
2023/05/08 06:35:50;;;;;;;;;;;18.00;99.90;;;18.36;67.45;99063.28;4924361;28;124385;-88
2023/05/08 06:38:21;;;;;;;;;;;18.10;99.90;;;18.35;67.37;99063.63;4922412;28;119434;-90
2023/05/08 06:40:49;;;;;;;;;;;18.00;99.90;;;18.34;67.54;99074.00;4909580;28;119792;-90
2023/05/08 06:43:15;;;;;;;;;;;18.00;99.90;;;18.34;67.45;99068.41;4896892;28;123145;-90
2023/05/08 06:45:48;;;;;;;;;;;18.00;99.90;;;18.31;67.59;99074.72;4902647;28;124723;-90
2023/05/08 06:48:14;;;;;;;;;;;18.00;99.90;;;18.31;67.42;99067.16;4903682;28;119152;-89
2023/05/08 06:50:41;;;;;;;;;;;18.00;99.90;;;18.28;67.67;99067.88;4903367;28;119014;-88
2023/05/08 06:53:10;;;;;;;;;;;18.00;99.90;;;18.27;67.82;99068.25;4900530;28;122887;-90
2023/05/08 06:55:37;;;;;;;;;;;18.00;99.90;;;18.28;67.73;99072.66;4903481;28;123981;-88
2023/05/08 06:58:11;;;;;;;;;;;18.00;99.90;;;18.29;67.69;99068.69;4910017;28;119541;-88
2023/05/08 07:00:37;;;;;;;;;;;16.80;99.90;;;18.29;67.93;99068.69;4907139;28;117935;-87
2023/05/08 07:03:03;;;;;;;;;;;18.00;99.90;;;18.29;67.77;99071.47;4899764;28;123428;-88
2023/05/08 07:05:33;;;;;;;;;;;18.00;99.90;;;18.29;67.82;99071.47;4906653;28;123998;-87
2023/05/08 07:07:59;;;;;;;;;;;18.00;99.90;;;18.30;67.72;99073.13;4906540;28;120430;-87
2023/05/08 07:10:26;;;;;;;;;;;18.00;99.90;;;18.33;67.76;99072.41;4895819;28;119807;-87
2023/05/08 07:12:52;;;;;;;;;;;18.00;99.90;;;18.33;67.85;99073.22;4899128;28;124190;-88
2023/05/08 07:15:21;;;;;;;;;;;18.00;99.90;;;18.35;67.92;99066.44;4907071;28;124270;-88
2023/05/08 07:17:47;;;;;;;;;;;18.00;99.90;;;18.35;67.90;99075.66;4906318;28;119091;-88
2023/05/08 07:20:13;;;;;;;;;;;18.00;99.90;;;18.35;67.84;99078.47;4906665;28;118690;-86
2023/05/08 07:22:40;;;;;;;;;;;18.00;99.90;;;18.36;68.01;99076.47;4900282;28;124228;-89
2023/05/08 07:25:08;;;;;;;;;;;18.00;99.90;;;18.36;67.66;99071.69;4900715;28;124303;-88
2023/05/08 07:27:34;;;;;;;;;;;18.00;99.90;;;18.39;68.01;99076.56;4909509;28;119227;-88
2023/05/08 07:30:10;;;;;;;;;;;18.10;99.90;;;18.42;67.99;99078.63;4907196;28;118034;-89
2023/05/08 07:32:47;;;;;;;;;;;18.10;99.90;;;18.43;67.79;99077.47;4901923;28;125098;-90
2023/05/08 07:35:25;;;;;;;;;;;18.10;99.90;;;18.42;68.09;99073.03;4895912;28;123581;-88
2023/05/08 07:37:51;;;;;;;;;;;18.10;99.90;;;18.43;68.07;99085.88;4906821;28;119365;-89
2023/05/08 07:40:20;;;;;;;;;;;18.10;99.90;;;18.42;67.89;99081.44;4900992;28;119511;-85
2023/05/08 07:42:47;;;;;;;;;;;18.10;99.90;;;18.40;68.01;99085.75;4910745;28;123137;-88
2023/05/08 07:45:15;;;;;;;;;;;18.10;99.90;;;18.42;68.27;99091.81;4910029;28;124204;-90
2023/05/08 07:47:57;;;;;;;;;;;18.10;99.90;;;18.41;67.94;99085.41;4909253;28;119286;-90
2023/05/08 07:50:24;;;;;;;;;;;18.10;99.90;;;18.38;68.27;99088.13;4911108;28;118976;-86
2023/05/08 07:52:51;;;;;;;;;;;18.10;99.90;;;18.40;68.21;99089.34;4907225;28;124316;-88
2023/05/08 07:55:20;;;;;;;;;;;18.10;99.90;;;18.44;68.02;99095.06;4900646;28;124566;-88
2023/05/08 07:57:50;;;;;;;;;;;18.10;99.90;;;18.43;68.03;99091.47;4905590;28;121067;-88
2023/05/08 08:00:22;;;;;;;;;;;18.10;99.90;;;18.38;68.25;99091.72;4902429;28;120131;-88
2023/05/08 08:02:54;;;;;;;;;;;18.10;99.90;;;18.39;68.35;99098.13;4909061;28;124378;-88
2023/05/08 08:05:20;;;;;;;;;;;18.10;99.90;;;18.42;68.15;99089.81;4899967;28;124211;-86
2023/05/08 08:07:47;;;;;;;;;;;18.10;99.90;;;18.48;68.14;99095.97;4908652;28;119549;-87
2023/05/08 08:10:16;;;;;;;;;;;18.10;99.90;;;18.52;68.29;99089.31;4907879;28;118869;-85
2023/05/08 08:12:45;;;;;;;;;;;18.20;99.90;;;18.57;68.08;99093.84;4908767;28;124460;-86
2023/05/08 08:15:12;;;;;;;;;;;18.20;99.90;;;18.59;68.09;99087.88;4902404;28;124596;-87
2023/05/08 08:17:41;;;;;;;;;;;18.20;99.90;;;18.63;68.03;99091.59;4906510;28;119952;-87
2023/05/08 08:20:07;;;;;;;;;;;18.30;99.90;;;18.66;67.74;99097.25;4905113;28;118635;-90
2023/05/08 08:22:36;;;;;;;;;;;18.30;99.90;;;18.66;67.57;99093.66;4908152;28;123992;-89
2023/05/08 08:25:05;;;;;;;;;;;18.30;99.90;;;18.68;67.55;99105.31;4913637;28;123320;-87
2023/05/08 08:27:31;;;;;;;;;;;18.30;99.90;;;18.67;67.44;99100.88;4908831;28;119552;-87
2023/05/08 08:29:58;;;;;;;;;;;18.30;99.90;;;18.69;67.44;99106.94;4902763;28;118781;-87
2023/05/08 08:32:24;;;;;;;;;;;18.30;99.90;;;18.72;67.19;99100.63;4905903;28;124974;-89
2023/05/08 08:34:55;;;;;;;;;;;18.40;99.90;;;18.77;67.07;99098.38;4903951;28;124087;-88
2023/05/08 08:37:23;;;;;;;;;;;18.40;99.90;;;18.82;67.09;99105.72;4905969;28;118045;-87
2023/05/08 08:39:49;;;;;;;;;;;18.40;99.90;;;18.85;66.72;99102.19;4916974;28;118802;-88
2023/05/08 08:42:18;;;;;;;;;;;18.50;99.90;;;18.87;66.65;99097.06;4903259;28;124320;-87
2023/05/08 08:44:45;;;;;;;;;;;18.50;99.90;;;18.89;66.05;99105.91;4906705;28;123776;-88
2023/05/08 08:47:12;;;;;;;;;;;18.50;99.90;;;18.86;65.85;99101.03;4907484;28;118987;-87
2023/05/08 08:49:54;;;;;;;;;;;18.40;99.90;;;18.81;65.50;99101.31;4902746;28;119706;-89
2023/05/08 08:52:31;;;;;;;;;;;18.40;99.90;;;18.81;65.73;99103.28;4908597;28;125186;-90
2023/05/08 08:55:00;;;;;;;;;;;18.40;99.90;;;18.85;65.82;99113.38;4893858;28;124548;-89
2023/05/08 08:57:33;;;;;;;;;;;18.40;99.90;;;18.87;65.83;99102.66;4924744;28;119430;-89
2023/05/08 09:00:06;;;;;;;;;;;18.50;99.90;;;18.87;65.69;99102.66;4900830;28;117965;-89
2023/05/08 09:02:33;;;;;;;;;;;18.50;99.90;;;18.89;65.83;99111.50;4908354;28;123635;-87
2023/05/08 09:05:06;;;;;;;;;;;18.50;99.90;;;18.91;65.63;99111.13;4907461;28;124511;-88
2023/05/08 09:07:33;;;;;;;;;;;18.50;99.90;;;18.91;65.57;99106.38;4905351;28;118254;-89
2023/05/08 09:10:06;;;;;;;;;;;18.60;99.90;;;18.93;65.47;99117.19;4926488;28;118854;-90
2023/05/08 09:12:32;;;;;;;;;;;18.60;99.90;;;18.94;65.37;99107.59;4910223;28;124060;-89
2023/05/08 09:14:59;;;;;;;;;;;18.60;99.90;;;18.96;65.02;99106.06;4909372;28;124759;-89
2023/05/08 09:17:28;;;;;;;;;;;18.60;99.90;;;18.95;64.68;99112.84;4921388;28;118857;-87
2023/05/08 09:19:55;;;;;;;;;;;18.60;99.90;;;18.94;64.52;99111.25;4901901;28;117983;-89
2023/05/08 09:22:28;;;;;;;;;;;18.60;99.90;;;18.98;64.69;99114.13;4891975;28;124130;-87
2023/05/08 09:25:05;;;;;;;;;;;18.60;99.90;;;19.01;64.93;99112.59;4899395;28;124004;-88
2023/05/08 09:27:31;;;;;;;;;;;18.70;99.90;;;19.02;64.60;99108.59;4891738;28;119717;-88
2023/05/08 09:30:06;;;;;;;;;;;18.70;99.90;;;19.05;64.61;99113.47;4901578;28;118748;-86
2023/05/08 09:32:34;;;;;;;;;;;18.70;99.90;;;19.04;64.79;99109.88;4891867;28;124331;-88
2023/05/08 09:35:07;;;;;;;;;;;18.70;99.90;;;19.05;64.72;99107.88;4906322;28;124093;-88
2023/05/08 09:37:43;;;;;;;;;;;18.70;99.90;;;19.06;64.92;99106.72;4905596;28;121042;-88
2023/05/08 09:40:21;;;;;;;;;;;18.70;99.90;;;19.09;64.97;99114.41;4910970;28;119281;-87
2023/05/08 09:42:49;;;;;;;;;;;18.70;99.90;;;19.12;64.79;99114.47;4892808;28;125588;-88
2023/05/08 09:45:31;;;;;;;;;;;18.80;99.90;;;19.15;64.74;99112.94;4904657;28;123983;-86
2023/05/08 09:47:58;;;;;;;;;;;18.80;99.90;;;19.19;64.68;99108.25;4907783;28;119454;-86
2023/05/08 09:50:24;;;;;;;;;;;18.80;99.90;;;19.23;64.36;99111.94;4911713;28;118622;-85
2023/05/08 09:52:54;;;;;;;;;;;18.90;99.90;;;19.27;64.45;99109.25;4900923;28;124325;-87
2023/05/08 09:55:23;;;;;;;;;;;18.90;99.90;;;19.29;64.32;99113.31;4908221;28;123975;-90
2023/05/08 09:57:58;;;;;;;;;;;19.40;99.90;;;19.28;64.06;99111.66;4909912;28;118579;-87
2023/05/08 10:00:29;;;;;;;;;;;18.90;99.80;;;19.30;63.96;99114.94;4906962;28;118696;-86
2023/05/08 10:02:57;;;;;;;;;;;18.90;99.80;;;19.36;64.22;99116.25;4908821;28;123910;-86
2023/05/08 10:05:33;;;;;;;;;;;19.00;99.80;;;19.41;63.96;99113.19;4907393;28;123059;-85
2023/05/08 10:08:18;;;;;;;;;;;19.00;99.80;;;19.41;64.19;99107.59;4908053;28;119668;-89
2023/05/08 10:10:44;;;;;;;;;;;19.00;99.70;;;19.44;63.83;99108.84;4906430;28;117768;-86
2023/05/08 10:13:11;;;;;;;;;;;19.10;99.90;;;19.49;63.93;99110.56;4907741;28;124274;-87
2023/05/08 10:15:43;;;;;;;;;;;19.10;99.70;;;19.50;64.04;99106.56;4907657;28;122943;-87
2023/05/08 10:18:10;;;;;;;;;;;19.10;99.70;;;19.52;63.82;99109.81;4906461;28;119730;-86
2023/05/08 10:20:46;;;;;;;;;;;19.10;99.80;;;19.57;63.98;99109.56;4907434;28;119029;-87
2023/05/08 10:23:19;;;;;;;;;;;19.10;99.80;;;19.64;64.05;99107.72;4906964;28;124358;-87
2023/05/08 10:25:46;;;;;;;;;;;19.20;99.80;;;19.72;63.57;99103.13;4892711;28;123992;-88
2023/05/08 10:28:40;;;;;;;;;;;19.30;99.80;;;19.79;63.51;99106.06;4900174;28;120409;-88
2023/05/08 10:31:08;;;;;;;;;;;19.30;99.70;;;19.84;63.35;99111.41;4899574;28;119805;-88
2023/05/08 10:33:44;;;;;;;;;;;19.40;99.60;;;19.87;63.07;99109.84;4897743;28;124227;-88
2023/05/08 10:36:12;;;;;;;;;;;19.40;99.50;;;19.93;63.38;99113.97;4903797;28;123337;-88
2023/05/08 10:38:42;;;;;;;;;;;19.50;99.40;;;19.97;63.11;99108.47;4902906;28;119615;-87
2023/05/08 10:41:09;;;;;;;;;;;19.60;99.40;;;20.03;63.01;99109.78;4904693;28;118621;-86
2023/05/08 10:43:41;;;;;;;;;;;19.60;99.30;;;20.04;62.12;99105.78;4897186;28;123526;-88
2023/05/08 10:46:28;;;;;;;;;;;19.50;98.80;;;20.02;61.67;99108.19;4897211;28;123900;-86
2023/05/08 10:49:29;;;;;;;;;;;19.60;98.70;;;20.00;61.66;99107.72;4905111;28;119592;-87
2023/05/08 10:52:16;;;;;;;;;;;19.60;98.70;;;20.03;61.70;99101.38;4906785;28;118634;-86
2023/05/08 10:54:53;;;;;;;;;;;19.60;98.60;;;20.05;61.71;99105.44;4907105;28;124161;-87
2023/05/08 10:57:19;;;;;;;;;;;19.70;98.60;;;20.10;61.50;99095.94;4894078;28;124728;-87
2023/05/08 10:59:46;;;;;;;;;;;19.70;98.50;;;20.16;61.73;99094.44;4898841;28;118703;-88
2023/05/08 11:02:30;;;;;;;;;;;19.80;98.40;;;20.20;61.17;99095.34;4904699;28;119201;-87
2023/05/08 11:05:19;;;;;;;;;;;19.80;98.30;;;20.25;61.02;99095.00;4900684;28;124113;-88
2023/05/08 11:08:00;;;;;;;;;;;19.90;98.40;;;20.26;60.62;99085.44;4902131;28;124019;-86
2023/05/08 11:10:35;;;;;;;;;;;19.90;98.10;;;20.27;60.90;99087.03;4893670;28;117781;-87
2023/05/08 11:13:06;;;;;;;;;;;18.90;97.60;;;20.29;60.82;99087.50;4909448;28;117055;-87
2023/05/08 11:15:36;;;;;;;;;;;19.90;98.00;;;20.38;61.12;99092.06;4906114;28;124848;-85
2023/05/08 11:18:05;;;;;;;;;;;20.00;98.10;;;20.42;60.80;99098.56;4910007;28;123650;-87
2023/05/08 11:20:41;;;;;;;;;;;20.00;98.20;;;20.42;61.06;99090.97;4911377;28;120580;-88
2023/05/08 11:23:21;;;;;;;;;;;20.00;98.30;;;20.42;60.17;99087.34;4907427;28;120121;-87
2023/05/08 11:25:59;;;;;;;;;;;20.00;98.00;;;20.45;60.51;99086.59;4905674;28;124289;-86
2023/05/08 11:28:32;;;;;;;;;;;20.00;98.00;;;20.55;60.52;99083.19;4900355;28;122902;-88